Dryden Regional Airport
CYHD : now visible

Airfield :











YOU CAN JOIN US ON...

 
LOGIN :

Register | Disclaimer

   EN    FR    IT 

 









Legend :    VFR   Marginal VFR   IFR   Intensive IFR   Very Intensive IFR
Visi :
Ceiling :
>= 8 km
>= 3000ft
5 to 8 km
1000 to 3000 ft
1500m to 5 km
500 to 1000 ft
800 to 1500m
200 to 500 ft
< 800m
< 200 ft
Symbols :   Thunderstorms  Fog  Heavy snow  Heavy precipitations  Wind > 20 kt






- Airport Elevation : 1354 ft
- IATA code : YHD


CYHD - Dryden Regional

CURRENT METAR :
  • 120300Z AUTO 23007KT 9SM CLR M23/M25 A3022 RMK SLP291

EXPIRED METARs :
  • 120200Z AUTO 23008KT 9SM CLR M23/M25 A3023 RMK SLP292
  • 120100Z AUTO 23007KT 9SM CLR M22/M25 A3022 RMK SLP291

TAF TAF CYHD
Valid from the 12 at 02:00 until the 12 at 14:00 UTC


120138Z 1202/1214 23007KT P6SM SKC
BECMG 1210/1212 14005KT RMK FCST BASED ON AUTO OBS. NXT FCST BY 120800Z



MET'MAP, your aeronautical weather chart ! - Copyright ORBIFLY December 2007 - Disclaimer

ORBIFLY MET'MAP TEAM :

Programming & Development : Alexandra Zaïnal
Concept & original design : Baudouin d'Aumeries
Assistance for programming : Marc-Olivier Méhu
Technical & hardware support : Manuel Goepfert

Contact : metmap@orbifly.com




SOURCES & CREDITS :

   NOAA       Earth
Advisory